sensor_id;sensor_type;location;lat;lon;timestamp;P1;durP1;ratioP1;P2;durP2;ratioP2
65377;SDS011;51982;51.042;13.806;2023-08-12T00:01:48;5.97;;;2.85;;
65377;SDS011;51982;51.042;13.806;2023-08-12T00:04:13;4.57;;;3.00;;
65377;SDS011;51982;51.042;13.806;2023-08-12T00:06:40;3.92;;;2.72;;
65377;SDS011;51982;51.042;13.806;2023-08-12T00:09:06;5.55;;;2.88;;
65377;SDS011;51982;51.042;13.806;2023-08-12T00:11:32;6.25;;;3.10;;
65377;SDS011;51982;51.042;13.806;2023-08-12T00:13:58;6.10;;;2.80;;
65377;SDS011;51982;51.042;13.806;2023-08-12T00:16:23;4.97;;;3.20;;
65377;SDS011;51982;51.042;13.806;2023-08-12T00:18:48;6.93;;;2.97;;
65377;SDS011;51982;51.042;13.806;2023-08-12T00:21:13;5.75;;;2.58;;
65377;SDS011;51982;51.042;13.806;2023-08-12T00:23:40;9.38;;;3.05;;
65377;SDS011;51982;51.042;13.806;2023-08-12T00:26:09;5.60;;;3.00;;
65377;SDS011;51982;51.042;13.806;2023-08-12T00:28:35;5.45;;;3.00;;
65377;SDS011;51982;51.042;13.806;2023-08-12T00:31:01;5.65;;;2.90;;
65377;SDS011;51982;51.042;13.806;2023-08-12T00:33:30;8.30;;;2.92;;
65377;SDS011;51982;51.042;13.806;2023-08-12T00:35:55;5.18;;;2.95;;
65377;SDS011;51982;51.042;13.806;2023-08-12T00:38:21;6.57;;;2.83;;
65377;SDS011;51982;51.042;13.806;2023-08-12T00:40:46;7.63;;;2.90;;
65377;SDS011;51982;51.042;13.806;2023-08-12T00:43:12;4.28;;;2.83;;
65377;SDS011;51982;51.042;13.806;2023-08-12T00:45:37;6.43;;;3.05;;
65377;SDS011;51982;51.042;13.806;2023-08-12T00:48:03;4.53;;;2.67;;
65377;SDS011;51982;51.042;13.806;2023-08-12T00:50:29;5.05;;;3.00;;
65377;SDS011;51982;51.042;13.806;2023-08-12T00:52:55;4.78;;;2.70;;
65377;SDS011;51982;51.042;13.806;2023-08-12T00:55:20;4.85;;;2.80;;
65377;SDS011;51982;51.042;13.806;2023-08-12T00:57:46;3.92;;;2.67;;
65377;SDS011;51982;51.042;13.806;2023-08-12T01:00:11;4.30;;;2.80;;
65377;SDS011;51982;51.042;13.806;2023-08-12T01:02:38;5.15;;;3.08;;
65377;SDS011;51982;51.042;13.806;2023-08-12T01:05:03;6.05;;;2.80;;
65377;SDS011;51982;51.042;13.806;2023-08-12T01:07:29;7.53;;;3.00;;
65377;SDS011;51982;51.042;13.806;2023-08-12T01:09:54;8.65;;;3.30;;
65377;SDS011;51982;51.042;13.806;2023-08-12T01:12:23;4.97;;;2.90;;
65377;SDS011;51982;51.042;13.806;2023-08-12T01:17:32;8.95;;;3.22;;
65377;SDS011;51982;51.042;13.806;2023-08-12T01:19:59;7.65;;;3.17;;
65377;SDS011;51982;51.042;13.806;2023-08-12T01:22:25;4.47;;;2.95;;
65377;SDS011;51982;51.042;13.806;2023-08-12T01:24:53;4.75;;;2.75;;
65377;SDS011;51982;51.042;13.806;2023-08-12T01:27:18;6.97;;;2.90;;
65377;SDS011;51982;51.042;13.806;2023-08-12T01:29:45;4.72;;;2.95;;
65377;SDS011;51982;51.042;13.806;2023-08-12T01:32:17;8.75;;;3.00;;
65377;SDS011;51982;51.042;13.806;2023-08-12T01:35:20;4.88;;;2.97;;
65377;SDS011;51982;51.042;13.806;2023-08-12T01:37:50;6.65;;;2.95;;
65377;SDS011;51982;51.042;13.806;2023-08-12T01:40:17;4.38;;;2.88;;
65377;SDS011;51982;51.042;13.806;2023-08-12T01:42:44;6.88;;;3.05;;
65377;SDS011;51982;51.042;13.806;2023-08-12T01:45:10;6.32;;;2.95;;
65377;SDS011;51982;51.042;13.806;2023-08-12T01:47:36;5.15;;;3.05;;
65377;SDS011;51982;51.042;13.806;2023-08-12T01:50:01;5.65;;;3.03;;
65377;SDS011;51982;51.042;13.806;2023-08-12T01:52:26;6.70;;;2.95;;
65377;SDS011;51982;51.042;13.806;2023-08-12T01:54:52;6.25;;;2.90;;
65377;SDS011;51982;51.042;13.806;2023-08-12T01:57:17;8.43;;;3.15;;
65377;SDS011;51982;51.042;13.806;2023-08-12T01:59:42;6.57;;;3.10;;
65377;SDS011;51982;51.042;13.806;2023-08-12T02:02:10;5.65;;;3.00;;
65377;SDS011;51982;51.042;13.806;2023-08-12T02:04:36;5.47;;;2.88;;
65377;SDS011;51982;51.042;13.806;2023-08-12T02:07:02;5.75;;;3.30;;
65377;SDS011;51982;51.042;13.806;2023-08-12T02:09:28;7.32;;;2.97;;
65377;SDS011;51982;51.042;13.806;2023-08-12T02:11:54;6.18;;;3.13;;
65377;SDS011;51982;51.042;13.806;2023-08-12T02:14:19;4.50;;;3.20;;
65377;SDS011;51982;51.042;13.806;2023-08-12T02:16:44;5.55;;;3.00;;
65377;SDS011;51982;51.042;13.806;2023-08-12T02:19:09;6.18;;;3.45;;
65377;SDS011;51982;51.042;13.806;2023-08-12T02:21:35;5.43;;;2.92;;
65377;SDS011;51982;51.042;13.806;2023-08-12T02:24:00;5.80;;;2.97;;
65377;SDS011;51982;51.042;13.806;2023-08-12T02:26:25;5.05;;;2.88;;
65377;SDS011;51982;51.042;13.806;2023-08-12T02:28:50;5.82;;;2.95;;
65377;SDS011;51982;51.042;13.806;2023-08-12T02:31:16;4.85;;;3.00;;
65377;SDS011;51982;51.042;13.806;2023-08-12T02:33:41;4.68;;;3.03;;
65377;SDS011;51982;51.042;13.806;2023-08-12T02:36:07;3.72;;;2.70;;
65377;SDS011;51982;51.042;13.806;2023-08-12T02:38:32;5.72;;;3.28;;
65377;SDS011;51982;51.042;13.806;2023-08-12T02:40:57;4.97;;;3.00;;
65377;SDS011;51982;51.042;13.806;2023-08-12T02:43:22;5.97;;;3.03;;
65377;SDS011;51982;51.042;13.806;2023-08-12T02:45:48;11.18;;;3.50;;
65377;SDS011;51982;51.042;13.806;2023-08-12T02:48:13;4.68;;;3.30;;
65377;SDS011;51982;51.042;13.806;2023-08-12T02:50:39;5.97;;;3.00;;
65377;SDS011;51982;51.042;13.806;2023-08-12T02:53:04;6.30;;;3.22;;
65377;SDS011;51982;51.042;13.806;2023-08-12T02:55:30;5.75;;;2.92;;
65377;SDS011;51982;51.042;13.806;2023-08-12T02:57:57;4.40;;;2.85;;
65377;SDS011;51982;51.042;13.806;2023-08-12T03:00:22;4.47;;;2.95;;
65377;SDS011;51982;51.042;13.806;2023-08-12T03:02:48;9.77;;;3.20;;
65377;SDS011;51982;51.042;13.806;2023-08-12T03:05:13;5.38;;;3.13;;
65377;SDS011;51982;51.042;13.806;2023-08-12T03:07:38;4.75;;;3.13;;
65377;SDS011;51982;51.042;13.806;2023-08-12T03:10:04;5.13;;;2.80;;
65377;SDS011;51982;51.042;13.806;2023-08-12T03:12:29;10.90;;;3.17;;
65377;SDS011;51982;51.042;13.806;2023-08-12T03:14:55;5.05;;;2.97;;
65377;SDS011;51982;51.042;13.806;2023-08-12T03:17:20;7.90;;;3.15;;
65377;SDS011;51982;51.042;13.806;2023-08-12T03:19:45;3.67;;;2.83;;
65377;SDS011;51982;51.042;13.806;2023-08-12T03:22:10;5.68;;;3.03;;
65377;SDS011;51982;51.042;13.806;2023-08-12T03:24:36;4.40;;;2.80;;
65377;SDS011;51982;51.042;13.806;2023-08-12T03:27:01;8.60;;;3.23;;
65377;SDS011;51982;51.042;13.806;2023-08-12T03:29:26;6.35;;;3.20;;
65377;SDS011;51982;51.042;13.806;2023-08-12T03:31:51;8.75;;;2.90;;
65377;SDS011;51982;51.042;13.806;2023-08-12T03:34:17;4.15;;;2.95;;
65377;SDS011;51982;51.042;13.806;2023-08-12T03:36:42;4.03;;;2.90;;
65377;SDS011;51982;51.042;13.806;2023-08-12T03:39:07;5.13;;;3.03;;
65377;SDS011;51982;51.042;13.806;2023-08-12T03:41:33;5.60;;;2.95;;
65377;SDS011;51982;51.042;13.806;2023-08-12T03:43:58;6.38;;;3.28;;
65377;SDS011;51982;51.042;13.806;2023-08-12T03:46:23;6.00;;;3.15;;
65377;SDS011;51982;51.042;13.806;2023-08-12T03:48:49;4.60;;;3.03;;
65377;SDS011;51982;51.042;13.806;2023-08-12T03:51:14;6.50;;;3.17;;
65377;SDS011;51982;51.042;13.806;2023-08-12T03:53:39;3.95;;;2.95;;
65377;SDS011;51982;51.042;13.806;2023-08-12T03:56:05;5.45;;;2.92;;
65377;SDS011;51982;51.042;13.806;2023-08-12T03:58:30;5.85;;;3.20;;
65377;SDS011;51982;51.042;13.806;2023-08-12T04:00:55;4.28;;;3.20;;
65377;SDS011;51982;51.042;13.806;2023-08-12T04:03:20;5.78;;;3.30;;
65377;SDS011;51982;51.042;13.806;2023-08-12T04:05:49;4.53;;;3.08;;
65377;SDS011;51982;51.042;13.806;2023-08-12T04:08:17;7.35;;;2.90;;
65377;SDS011;51982;51.042;13.806;2023-08-12T04:10:44;8.60;;;2.92;;
65377;SDS011;51982;51.042;13.806;2023-08-12T04:13:10;3.75;;;2.97;;
65377;SDS011;51982;51.042;13.806;2023-08-12T04:15:35;4.60;;;2.87;;
65377;SDS011;51982;51.042;13.806;2023-08-12T04:18:00;4.70;;;3.40;;
65377;SDS011;51982;51.042;13.806;2023-08-12T04:20:26;7.80;;;3.00;;
65377;SDS011;51982;51.042;13.806;2023-08-12T04:22:51;5.10;;;3.05;;
65377;SDS011;51982;51.042;13.806;2023-08-12T04:25:16;4.93;;;3.00;;
65377;SDS011;51982;51.042;13.806;2023-08-12T04:27:42;4.30;;;3.10;;
65377;SDS011;51982;51.042;13.806;2023-08-12T04:30:07;5.15;;;3.00;;
65377;SDS011;51982;51.042;13.806;2023-08-12T04:32:33;4.70;;;3.00;;
65377;SDS011;51982;51.042;13.806;2023-08-12T04:34:58;5.05;;;3.10;;
65377;SDS011;51982;51.042;13.806;2023-08-12T04:37:23;6.68;;;3.50;;
65377;SDS011;51982;51.042;13.806;2023-08-12T04:39:49;7.65;;;2.90;;
65377;SDS011;51982;51.042;13.806;2023-08-12T04:42:15;5.63;;;3.00;;
65377;SDS011;51982;51.042;13.806;2023-08-12T04:44:40;7.25;;;3.00;;
65377;SDS011;51982;51.042;13.806;2023-08-12T04:47:06;9.85;;;2.95;;
65377;SDS011;51982;51.042;13.806;2023-08-12T04:49:31;5.82;;;3.05;;
65377;SDS011;51982;51.042;13.806;2023-08-12T04:51:56;12.88;;;3.28;;
65377;SDS011;51982;51.042;13.806;2023-08-12T04:54:22;9.52;;;3.03;;
65377;SDS011;51982;51.042;13.806;2023-08-12T04:56:47;5.90;;;3.08;;
65377;SDS011;51982;51.042;13.806;2023-08-12T04:59:12;6.40;;;3.15;;
65377;SDS011;51982;51.042;13.806;2023-08-12T05:01:38;5.43;;;3.30;;
65377;SDS011;51982;51.042;13.806;2023-08-12T05:04:03;5.47;;;3.17;;
65377;SDS011;51982;51.042;13.806;2023-08-12T05:06:28;5.45;;;3.08;;
65377;SDS011;51982;51.042;13.806;2023-08-12T05:08:55;6.82;;;2.92;;
65377;SDS011;51982;51.042;13.806;2023-08-12T05:11:20;3.80;;;2.80;;
65377;SDS011;51982;51.042;13.806;2023-08-12T05:13:45;5.10;;;3.22;;
65377;SDS011;51982;51.042;13.806;2023-08-12T05:16:11;7.35;;;3.00;;
65377;SDS011;51982;51.042;13.806;2023-08-12T05:18:36;5.20;;;3.17;;
65377;SDS011;51982;51.042;13.806;2023-08-12T05:21:01;6.82;;;3.88;;
65377;SDS011;51982;51.042;13.806;2023-08-12T05:23:26;6.43;;;2.95;;
65377;SDS011;51982;51.042;13.806;2023-08-12T05:25:52;6.05;;;3.45;;
65377;SDS011;51982;51.042;13.806;2023-08-12T05:28:17;7.88;;;2.90;;
65377;SDS011;51982;51.042;13.806;2023-08-12T05:30:43;4.50;;;2.85;;
65377;SDS011;51982;51.042;13.806;2023-08-12T05:33:08;5.05;;;2.95;;
65377;SDS011;51982;51.042;13.806;2023-08-12T05:35:34;8.65;;;3.42;;
65377;SDS011;51982;51.042;13.806;2023-08-12T05:38:00;9.75;;;3.05;;
65377;SDS011;51982;51.042;13.806;2023-08-12T05:40:25;8.52;;;3.20;;
65377;SDS011;51982;51.042;13.806;2023-08-12T05:42:51;6.88;;;3.03;;
65377;SDS011;51982;51.042;13.806;2023-08-12T05:45:16;5.43;;;2.70;;
65377;SDS011;51982;51.042;13.806;2023-08-12T05:47:41;4.20;;;2.80;;
65377;SDS011;51982;51.042;13.806;2023-08-12T05:50:06;7.63;;;2.60;;
65377;SDS011;51982;51.042;13.806;2023-08-12T05:52:32;3.85;;;2.60;;
65377;SDS011;51982;51.042;13.806;2023-08-12T05:54:58;3.67;;;2.60;;
65377;SDS011;51982;51.042;13.806;2023-08-12T05:57:23;4.00;;;2.43;;
65377;SDS011;51982;51.042;13.806;2023-08-12T05:59:48;5.80;;;2.73;;
65377;SDS011;51982;51.042;13.806;2023-08-12T06:02:13;9.20;;;2.58;;
65377;SDS011;51982;51.042;13.806;2023-08-12T06:04:39;5.05;;;2.50;;
65377;SDS011;51982;51.042;13.806;2023-08-12T06:07:04;9.27;;;2.92;;
65377;SDS011;51982;51.042;13.806;2023-08-12T06:09:29;5.07;;;2.47;;
65377;SDS011;51982;51.042;13.806;2023-08-12T06:11:54;5.47;;;2.50;;
65377;SDS011;51982;51.042;13.806;2023-08-12T06:14:20;4.13;;;2.63;;
65377;SDS011;51982;51.042;13.806;2023-08-12T06:16:45;4.40;;;2.40;;
65377;SDS011;51982;51.042;13.806;2023-08-12T06:19:10;6.82;;;2.60;;
65377;SDS011;51982;51.042;13.806;2023-08-12T06:21:35;3.83;;;2.60;;
65377;SDS011;51982;51.042;13.806;2023-08-12T06:24:01;6.90;;;2.67;;
65377;SDS011;51982;51.042;13.806;2023-08-12T06:26:26;5.45;;;2.42;;
65377;SDS011;51982;51.042;13.806;2023-08-12T06:28:51;3.67;;;2.45;;
65377;SDS011;51982;51.042;13.806;2023-08-12T06:31:17;5.43;;;2.63;;
65377;SDS011;51982;51.042;13.806;2023-08-12T06:33:42;5.25;;;2.47;;
65377;SDS011;51982;51.042;13.806;2023-08-12T06:36:07;3.13;;;2.40;;
65377;SDS011;51982;51.042;13.806;2023-08-12T06:38:32;4.87;;;2.57;;
65377;SDS011;51982;51.042;13.806;2023-08-12T06:40:58;7.27;;;3.40;;
65377;SDS011;51982;51.042;13.806;2023-08-12T06:43:23;4.50;;;2.58;;
65377;SDS011;51982;51.042;13.806;2023-08-12T06:45:48;7.47;;;2.80;;
65377;SDS011;51982;51.042;13.806;2023-08-12T06:48:14;7.40;;;2.72;;
65377;SDS011;51982;51.042;13.806;2023-08-12T06:50:39;3.42;;;2.28;;
65377;SDS011;51982;51.042;13.806;2023-08-12T06:53:04;3.10;;;2.35;;
65377;SDS011;51982;51.042;13.806;2023-08-12T06:55:29;5.60;;;2.50;;
65377;SDS011;51982;51.042;13.806;2023-08-12T06:57:55;3.15;;;2.40;;
65377;SDS011;51982;51.042;13.806;2023-08-12T07:00:20;5.17;;;2.50;;
65377;SDS011;51982;51.042;13.806;2023-08-12T07:02:45;6.68;;;2.60;;
65377;SDS011;51982;51.042;13.806;2023-08-12T07:05:11;3.65;;;2.70;;
65377;SDS011;51982;51.042;13.806;2023-08-12T07:07:36;5.03;;;2.75;;
65377;SDS011;51982;51.042;13.806;2023-08-12T07:10:01;4.15;;;2.67;;
65377;SDS011;51982;51.042;13.806;2023-08-12T07:12:27;5.20;;;2.50;;
65377;SDS011;51982;51.042;13.806;2023-08-12T07:14:52;6.15;;;2.95;;
65377;SDS011;51982;51.042;13.806;2023-08-12T07:17:17;3.95;;;2.50;;
65377;SDS011;51982;51.042;13.806;2023-08-12T07:19:42;4.20;;;2.70;;
65377;SDS011;51982;51.042;13.806;2023-08-12T07:22:08;5.78;;;2.60;;
65377;SDS011;51982;51.042;13.806;2023-08-12T07:24:33;5.30;;;2.72;;
65377;SDS011;51982;51.042;13.806;2023-08-12T07:26:58;6.03;;;2.90;;
65377;SDS011;51982;51.042;13.806;2023-08-12T07:29:24;3.80;;;2.47;;
65377;SDS011;51982;51.042;13.806;2023-08-12T07:31:49;3.42;;;2.75;;
65377;SDS011;51982;51.042;13.806;2023-08-12T07:34:14;7.10;;;2.90;;
65377;SDS011;51982;51.042;13.806;2023-08-12T07:36:41;4.82;;;2.60;;
65377;SDS011;51982;51.042;13.806;2023-08-12T07:39:06;5.20;;;2.70;;
65377;SDS011;51982;51.042;13.806;2023-08-12T07:41:32;5.40;;;2.53;;
65377;SDS011;51982;51.042;13.806;2023-08-12T07:43:58;7.43;;;2.45;;
65377;SDS011;51982;51.042;13.806;2023-08-12T07:46:23;3.35;;;2.35;;
65377;SDS011;51982;51.042;13.806;2023-08-12T07:48:48;3.53;;;2.38;;
65377;SDS011;51982;51.042;13.806;2023-08-12T07:51:14;3.90;;;2.60;;
65377;SDS011;51982;51.042;13.806;2023-08-12T07:53:39;4.97;;;2.70;;
65377;SDS011;51982;51.042;13.806;2023-08-12T07:56:05;5.00;;;2.60;;
65377;SDS011;51982;51.042;13.806;2023-08-12T07:58:30;5.00;;;2.53;;
65377;SDS011;51982;51.042;13.806;2023-08-12T08:00:56;4.03;;;2.42;;
65377;SDS011;51982;51.042;13.806;2023-08-12T08:03:21;9.65;;;2.78;;
65377;SDS011;51982;51.042;13.806;2023-08-12T08:05:46;6.60;;;2.70;;
65377;SDS011;51982;51.042;13.806;2023-08-12T08:08:12;6.15;;;2.47;;
65377;SDS011;51982;51.042;13.806;2023-08-12T08:10:37;3.75;;;2.75;;
65377;SDS011;51982;51.042;13.806;2023-08-12T08:13:03;4.70;;;2.90;;
65377;SDS011;51982;51.042;13.806;2023-08-12T08:15:28;4.22;;;2.60;;
65377;SDS011;51982;51.042;13.806;2023-08-12T08:17:53;4.30;;;2.47;;
65377;SDS011;51982;51.042;13.806;2023-08-12T08:20:18;7.97;;;2.70;;
65377;SDS011;51982;51.042;13.806;2023-08-12T08:22:44;2.85;;;2.30;;
65377;SDS011;51982;51.042;13.806;2023-08-12T08:25:09;7.70;;;2.90;;
65377;SDS011;51982;51.042;13.806;2023-08-12T08:27:34;5.83;;;2.53;;
65377;SDS011;51982;51.042;13.806;2023-08-12T08:29:59;5.38;;;2.20;;
65377;SDS011;51982;51.042;13.806;2023-08-12T08:32:25;5.32;;;2.40;;
65377;SDS011;51982;51.042;13.806;2023-08-12T08:34:50;3.78;;;2.45;;
65377;SDS011;51982;51.042;13.806;2023-08-12T08:37:16;4.60;;;2.30;;
65377;SDS011;51982;51.042;13.806;2023-08-12T08:39:41;7.33;;;2.47;;
65377;SDS011;51982;51.042;13.806;2023-08-12T08:42:06;4.03;;;2.60;;
65377;SDS011;51982;51.042;13.806;2023-08-12T08:44:34;3.03;;;2.38;;
65377;SDS011;51982;51.042;13.806;2023-08-12T08:47:01;6.28;;;2.50;;
65377;SDS011;51982;51.042;13.806;2023-08-12T08:49:28;4.53;;;2.47;;
65377;SDS011;51982;51.042;13.806;2023-08-12T08:51:55;5.30;;;2.58;;
65377;SDS011;51982;51.042;13.806;2023-08-12T08:54:21;6.65;;;2.50;;
65377;SDS011;51982;51.042;13.806;2023-08-12T08:56:48;5.25;;;2.40;;
65377;SDS011;51982;51.042;13.806;2023-08-12T08:59:14;2.92;;;2.53;;
65377;SDS011;51982;51.042;13.806;2023-08-12T09:01:39;3.75;;;2.50;;
65377;SDS011;51982;51.042;13.806;2023-08-12T09:04:05;4.25;;;2.50;;
65377;SDS011;51982;51.042;13.806;2023-08-12T09:06:32;3.45;;;2.38;;
65377;SDS011;51982;51.042;13.806;2023-08-12T09:09:00;3.53;;;2.30;;
65377;SDS011;51982;51.042;13.806;2023-08-12T09:11:26;4.93;;;2.30;;
65377;SDS011;51982;51.042;13.806;2023-08-12T09:13:51;3.63;;;2.20;;
65377;SDS011;51982;51.042;13.806;2023-08-12T09:16:17;2.85;;;2.28;;
65377;SDS011;51982;51.042;13.806;2023-08-12T09:18:42;4.05;;;2.30;;
65377;SDS011;51982;51.042;13.806;2023-08-12T09:21:09;9.30;;;2.30;;
65377;SDS011;51982;51.042;13.806;2023-08-12T09:23:38;2.88;;;2.15;;
65377;SDS011;51982;51.042;13.806;2023-08-12T09:26:14;4.03;;;2.10;;
65377;SDS011;51982;51.042;13.806;2023-08-12T09:28:44;4.00;;;2.40;;
65377;SDS011;51982;51.042;13.806;2023-08-12T09:31:21;3.13;;;2.17;;
65377;SDS011;51982;51.042;13.806;2023-08-12T09:34:03;2.90;;;2.42;;
65377;SDS011;51982;51.042;13.806;2023-08-12T09:36:29;3.47;;;2.58;;
65377;SDS011;51982;51.042;13.806;2023-08-12T09:38:56;3.03;;;2.10;;
65377;SDS011;51982;51.042;13.806;2023-08-12T09:41:23;3.67;;;2.30;;
65377;SDS011;51982;51.042;13.806;2023-08-12T09:43:50;3.22;;;1.90;;
65377;SDS011;51982;51.042;13.806;2023-08-12T09:46:16;6.38;;;2.10;;
65377;SDS011;51982;51.042;13.806;2023-08-12T09:48:42;3.25;;;2.00;;
65377;SDS011;51982;51.042;13.806;2023-08-12T09:51:08;3.50;;;1.80;;
65377;SDS011;51982;51.042;13.806;2023-08-12T09:53:34;3.45;;;1.70;;
65377;SDS011;51982;51.042;13.806;2023-08-12T09:56:01;3.08;;;1.85;;
65377;SDS011;51982;51.042;13.806;2023-08-12T09:58:32;3.45;;;2.00;;
65377;SDS011;51982;51.042;13.806;2023-08-12T10:00:58;3.60;;;1.67;;
65377;SDS011;51982;51.042;13.806;2023-08-12T10:03:26;2.63;;;1.50;;
65377;SDS011;51982;51.042;13.806;2023-08-12T10:05:53;4.00;;;1.80;;
65377;SDS011;51982;51.042;13.806;2023-08-12T10:08:18;1.58;;;1.30;;
65377;SDS011;51982;51.042;13.806;2023-08-12T10:10:44;4.50;;;1.85;;
65377;SDS011;51982;51.042;13.806;2023-08-12T10:13:10;1.80;;;1.40;;
65377;SDS011;51982;51.042;13.806;2023-08-12T10:15:36;1.15;;;1.05;;
65377;SDS011;51982;51.042;13.806;2023-08-12T10:18:01;2.50;;;1.60;;
65377;SDS011;51982;51.042;13.806;2023-08-12T10:20:29;2.17;;;1.48;;
65377;SDS011;51982;51.042;13.806;2023-08-12T10:22:56;1.60;;;1.40;;
65377;SDS011;51982;51.042;13.806;2023-08-12T10:25:22;1.55;;;1.30;;
65377;SDS011;51982;51.042;13.806;2023-08-12T10:27:50;1.50;;;1.40;;
65377;SDS011;51982;51.042;13.806;2023-08-12T10:30:15;2.35;;;1.58;;
65377;SDS011;51982;51.042;13.806;2023-08-12T10:32:41;1.85;;;1.50;;
65377;SDS011;51982;51.042;13.806;2023-08-12T10:35:07;1.42;;;1.23;;
65377;SDS011;51982;51.042;13.806;2023-08-12T10:37:33;2.45;;;1.50;;
65377;SDS011;51982;51.042;13.806;2023-08-12T10:40:02;2.78;;;1.52;;
65377;SDS011;51982;51.042;13.806;2023-08-12T10:42:42;2.95;;;1.27;;
65377;SDS011;51982;51.042;13.806;2023-08-12T10:45:08;7.00;;;1.60;;
65377;SDS011;51982;51.042;13.806;2023-08-12T10:47:42;4.78;;;1.52;;
65377;SDS011;51982;51.042;13.806;2023-08-12T10:50:19;2.13;;;1.30;;
65377;SDS011;51982;51.042;13.806;2023-08-12T10:52:47;4.35;;;1.70;;
65377;SDS011;51982;51.042;13.806;2023-08-12T10:55:15;4.43;;;1.27;;
65377;SDS011;51982;51.042;13.806;2023-08-12T10:57:42;3.67;;;1.63;;
65377;SDS011;51982;51.042;13.806;2023-08-12T11:00:11;2.70;;;1.60;;
65377;SDS011;51982;51.042;13.806;2023-08-12T11:02:39;2.17;;;1.60;;
65377;SDS011;51982;51.042;13.806;2023-08-12T11:05:10;8.82;;;1.80;;
65377;SDS011;51982;51.042;13.806;2023-08-12T11:10:23;2.33;;;1.67;;
65377;SDS011;51982;51.042;13.806;2023-08-12T11:15:35;2.20;;;1.58;;
65377;SDS011;51982;51.042;13.806;2023-08-12T11:18:13;1.90;;;1.60;;
65377;SDS011;51982;51.042;13.806;2023-08-12T11:20:41;2.30;;;1.65;;
65377;SDS011;51982;51.042;13.806;2023-08-12T11:23:07;2.63;;;1.75;;
65377;SDS011;51982;51.042;13.806;2023-08-12T11:25:34;5.93;;;1.90;;
65377;SDS011;51982;51.042;13.806;2023-08-12T11:28:00;2.78;;;1.50;;
65377;SDS011;51982;51.042;13.806;2023-08-12T11:30:26;2.10;;;1.75;;
65377;SDS011;51982;51.042;13.806;2023-08-12T11:32:52;3.08;;;1.70;;
65377;SDS011;51982;51.042;13.806;2023-08-12T11:35:19;2.05;;;1.63;;
65377;SDS011;51982;51.042;13.806;2023-08-12T11:37:46;4.78;;;1.60;;
65377;SDS011;51982;51.042;13.806;2023-08-12T11:40:16;2.33;;;1.80;;
65377;SDS011;51982;51.042;13.806;2023-08-12T11:42:43;2.47;;;1.90;;
65377;SDS011;51982;51.042;13.806;2023-08-12T11:45:10;2.70;;;1.80;;
65377;SDS011;51982;51.042;13.806;2023-08-12T11:47:36;2.10;;;1.52;;
65377;SDS011;51982;51.042;13.806;2023-08-12T11:50:07;3.38;;;1.77;;
65377;SDS011;51982;51.042;13.806;2023-08-12T11:52:34;4.88;;;1.90;;
65377;SDS011;51982;51.042;13.806;2023-08-12T11:55:00;7.35;;;1.95;;
65377;SDS011;51982;51.042;13.806;2023-08-12T11:57:26;7.15;;;1.80;;
65377;SDS011;51982;51.042;13.806;2023-08-12T11:59:59;3.88;;;1.80;;
65377;SDS011;51982;51.042;13.806;2023-08-12T12:02:25;2.83;;;1.80;;
65377;SDS011;51982;51.042;13.806;2023-08-12T12:04:51;2.50;;;1.80;;
65377;SDS011;51982;51.042;13.806;2023-08-12T12:07:21;4.28;;;1.83;;
65377;SDS011;51982;51.042;13.806;2023-08-12T12:09:51;5.80;;;1.55;;
65377;SDS011;51982;51.042;13.806;2023-08-12T12:12:17;4.35;;;1.70;;
65377;SDS011;51982;51.042;13.806;2023-08-12T12:14:46;3.72;;;1.60;;
65377;SDS011;51982;51.042;13.806;2023-08-12T12:17:12;2.50;;;1.77;;
65377;SDS011;51982;51.042;13.806;2023-08-12T12:19:40;6.13;;;1.58;;
65377;SDS011;51982;51.042;13.806;2023-08-12T12:22:06;4.20;;;1.85;;
65377;SDS011;51982;51.042;13.806;2023-08-12T12:24:32;5.50;;;2.13;;
65377;SDS011;51982;51.042;13.806;2023-08-12T12:27:09;5.07;;;1.90;;
65377;SDS011;51982;51.042;13.806;2023-08-12T12:29:36;5.32;;;2.00;;
65377;SDS011;51982;51.042;13.806;2023-08-12T12:32:01;3.35;;;2.40;;
65377;SDS011;51982;51.042;13.806;2023-08-12T12:34:26;3.55;;;2.13;;
65377;SDS011;51982;51.042;13.806;2023-08-12T12:36:52;5.85;;;2.33;;
65377;SDS011;51982;51.042;13.806;2023-08-12T12:39:17;5.20;;;2.20;;
65377;SDS011;51982;51.042;13.806;2023-08-12T12:41:42;8.40;;;1.95;;
65377;SDS011;51982;51.042;13.806;2023-08-12T12:44:08;4.72;;;2.00;;
65377;SDS011;51982;51.042;13.806;2023-08-12T12:46:33;5.22;;;2.17;;
65377;SDS011;51982;51.042;13.806;2023-08-12T12:48:58;6.30;;;2.25;;
65377;SDS011;51982;51.042;13.806;2023-08-12T12:51:23;2.87;;;1.90;;
65377;SDS011;51982;51.042;13.806;2023-08-12T12:53:49;3.43;;;2.07;;
65377;SDS011;51982;51.042;13.806;2023-08-12T12:56:14;6.20;;;2.10;;
65377;SDS011;51982;51.042;13.806;2023-08-12T12:58:39;4.57;;;2.10;;
65377;SDS011;51982;51.042;13.806;2023-08-12T13:01:05;7.13;;;2.30;;
65377;SDS011;51982;51.042;13.806;2023-08-12T13:03:31;3.42;;;2.17;;
65377;SDS011;51982;51.042;13.806;2023-08-12T13:05:56;4.60;;;2.00;;
65377;SDS011;51982;51.042;13.806;2023-08-12T13:08:22;4.53;;;2.38;;
65377;SDS011;51982;51.042;13.806;2023-08-12T13:10:48;3.97;;;2.47;;
65377;SDS011;51982;51.042;13.806;2023-08-12T13:13:14;2.75;;;2.08;;
65377;SDS011;51982;51.042;13.806;2023-08-12T13:15:40;6.30;;;2.35;;
65377;SDS011;51982;51.042;13.806;2023-08-12T13:18:06;9.10;;;2.40;;
65377;SDS011;51982;51.042;13.806;2023-08-12T13:20:32;4.63;;;2.30;;
65377;SDS011;51982;51.042;13.806;2023-08-12T13:22:57;3.40;;;2.13;;
65377;SDS011;51982;51.042;13.806;2023-08-12T13:25:22;4.90;;;2.20;;
65377;SDS011;51982;51.042;13.806;2023-08-12T13:27:47;7.85;;;2.28;;
65377;SDS011;51982;51.042;13.806;2023-08-12T13:30:13;5.47;;;2.67;;
65377;SDS011;51982;51.042;13.806;2023-08-12T13:32:38;6.32;;;2.45;;
65377;SDS011;51982;51.042;13.806;2023-08-12T13:35:03;6.85;;;2.60;;
65377;SDS011;51982;51.042;13.806;2023-08-12T13:37:30;6.68;;;2.83;;
65377;SDS011;51982;51.042;13.806;2023-08-12T13:39:56;7.03;;;2.60;;
65377;SDS011;51982;51.042;13.806;2023-08-12T13:42:21;8.37;;;3.53;;
65377;SDS011;51982;51.042;13.806;2023-08-12T13:44:46;5.28;;;2.90;;
65377;SDS011;51982;51.042;13.806;2023-08-12T13:47:12;4.00;;;2.60;;
65377;SDS011;51982;51.042;13.806;2023-08-12T13:49:37;6.07;;;3.28;;
65377;SDS011;51982;51.042;13.806;2023-08-12T13:52:03;7.75;;;2.40;;
65377;SDS011;51982;51.042;13.806;2023-08-12T13:54:28;7.00;;;2.83;;
65377;SDS011;51982;51.042;13.806;2023-08-12T13:56:53;3.60;;;2.43;;
65377;SDS011;51982;51.042;13.806;2023-08-12T13:59:19;5.87;;;2.70;;
65377;SDS011;51982;51.042;13.806;2023-08-12T14:01:44;4.65;;;2.67;;
65377;SDS011;51982;51.042;13.806;2023-08-12T14:04:10;3.70;;;2.50;;
65377;SDS011;51982;51.042;13.806;2023-08-12T14:06:35;10.93;;;2.33;;
65377;SDS011;51982;51.042;13.806;2023-08-12T14:09:00;3.30;;;2.70;;
65377;SDS011;51982;51.042;13.806;2023-08-12T14:11:25;8.00;;;2.80;;
65377;SDS011;51982;51.042;13.806;2023-08-12T14:13:51;3.40;;;2.58;;
65377;SDS011;51982;51.042;13.806;2023-08-12T14:16:16;6.13;;;2.50;;
65377;SDS011;51982;51.042;13.806;2023-08-12T14:18:41;9.40;;;2.57;;
65377;SDS011;51982;51.042;13.806;2023-08-12T14:21:06;3.77;;;2.50;;
65377;SDS011;51982;51.042;13.806;2023-08-12T14:23:32;3.57;;;2.70;;
65377;SDS011;51982;51.042;13.806;2023-08-12T14:25:57;5.33;;;2.70;;
65377;SDS011;51982;51.042;13.806;2023-08-12T14:28:22;3.70;;;2.42;;
65377;SDS011;51982;51.042;13.806;2023-08-12T14:30:48;3.97;;;2.20;;
65377;SDS011;51982;51.042;13.806;2023-08-12T14:33:13;9.87;;;2.10;;
65377;SDS011;51982;51.042;13.806;2023-08-12T14:35:39;2.80;;;2.23;;